createdAt,value
2023-03-27T00:01:30.733Z,6.32
2023-03-27T00:04:00.613Z,4.45
2023-03-27T00:06:29.060Z,5.57
2023-03-27T00:08:58.310Z,5.18
2023-03-27T00:11:28.557Z,5.15
2023-03-27T00:13:57.221Z,5.47
2023-03-27T00:16:28.129Z,6.97
2023-03-27T00:18:57.394Z,5.72
2023-03-27T00:21:26.515Z,4.55
2023-03-27T00:23:56.718Z,4.78
2023-03-27T00:26:25.509Z,6.97
2023-03-27T00:28:55.919Z,4.82
2023-03-27T00:31:24.769Z,4.95
2023-03-27T00:33:53.673Z,5.15
2023-03-27T00:36:22.262Z,6.00
2023-03-27T00:38:53.152Z,5.75
2023-03-27T00:41:22.277Z,6.95
2023-03-27T00:43:54.471Z,6.20
2023-03-27T00:46:35.792Z,6.03
2023-03-27T00:49:07.764Z,6.60
2023-03-27T00:51:38.286Z,6.85
2023-03-27T00:54:07.520Z,5.97
2023-03-27T00:56:38.699Z,7.60
2023-03-27T00:59:11.395Z,7.05
2023-03-27T01:01:41.929Z,5.18
2023-03-27T01:04:11.521Z,5.72
2023-03-27T01:06:42.204Z,6.97
2023-03-27T01:09:11.225Z,6.32
2023-03-27T01:12:03.001Z,9.38
2023-03-27T01:14:36.121Z,8.70
2023-03-27T01:17:17.497Z,6.80
2023-03-27T01:20:10.132Z,6.60
2023-03-27T01:23:16.983Z,8.57
2023-03-27T01:26:36.370Z,7.82
2023-03-27T01:29:12.098Z,6.25
2023-03-27T01:32:02.384Z,7.18
2023-03-27T01:35:12.646Z,7.35
2023-03-27T01:38:07.620Z,8.77
2023-03-27T01:40:42.287Z,8.40
2023-03-27T01:43:18.123Z,10.05
2023-03-27T01:45:52.019Z,8.05
2023-03-27T01:48:27.705Z,7.97
2023-03-27T01:51:00.548Z,7.70
2023-03-27T01:53:32.827Z,9.02
2023-03-27T01:56:12.197Z,8.23
2023-03-27T01:58:46.479Z,11.75
2023-03-27T02:01:18.883Z,8.65
2023-03-27T02:03:52.229Z,10.18
2023-03-27T02:06:28.492Z,9.65
2023-03-27T02:09:03.043Z,9.75
2023-03-27T02:11:37.764Z,8.82
2023-03-27T02:14:10.466Z,9.52
2023-03-27T02:16:42.654Z,9.77
2023-03-27T02:19:19.793Z,11.00
2023-03-27T02:21:48.535Z,12.05
2023-03-27T02:24:18.872Z,11.15
2023-03-27T02:26:53.213Z,10.07
2023-03-27T02:29:33.043Z,11.35
2023-03-27T02:32:12.760Z,10.25
2023-03-27T02:34:58.902Z,12.77
2023-03-27T02:37:36.865Z,12.13
2023-03-27T02:40:15.156Z,9.43
2023-03-27T02:42:59.362Z,11.35
2023-03-27T02:45:35.844Z,10.32
2023-03-27T02:48:10.155Z,13.90
2023-03-27T02:50:43.091Z,11.57
2023-03-27T02:53:14.378Z,10.57
2023-03-27T02:55:46.955Z,11.00
2023-03-27T02:58:21.498Z,11.10
2023-03-27T03:00:52.200Z,11.57
2023-03-27T03:03:27.880Z,13.05
2023-03-27T03:05:57.222Z,12.93
2023-03-27T03:08:30.788Z,11.43
2023-03-27T03:11:04.557Z,14.65
2023-03-27T03:13:35.163Z,10.95
2023-03-27T03:16:04.044Z,12.05
2023-03-27T03:18:32.775Z,11.73
2023-03-27T03:21:01.793Z,11.13
2023-03-27T03:23:30.664Z,11.63
2023-03-27T03:25:59.418Z,14.27
2023-03-27T03:28:31.096Z,10.88
2023-03-27T03:31:02.901Z,11.55
2023-03-27T03:33:31.208Z,13.02
2023-03-27T03:36:00.922Z,9.98
2023-03-27T03:38:37.894Z,8.55
2023-03-27T03:41:07.732Z,12.43
2023-03-27T03:43:36.920Z,9.70
2023-03-27T03:46:06.849Z,7.93
2023-03-27T03:48:35.493Z,8.98
2023-03-27T03:51:04.387Z,9.80
2023-03-27T03:53:32.683Z,11.00
2023-03-27T03:56:01.678Z,8.23
2023-03-27T03:58:34.942Z,9.50
2023-03-27T04:01:04.061Z,11.50
2023-03-27T04:03:34.536Z,8.38
2023-03-27T04:06:05.698Z,10.10
2023-03-27T04:08:35.653Z,11.23
2023-03-27T04:11:04.521Z,8.73
2023-03-27T04:13:33.277Z,8.82
2023-03-27T04:16:02.440Z,8.48
2023-03-27T04:18:32.933Z,11.30
2023-03-27T04:21:03.863Z,13.25
2023-03-27T04:23:33.381Z,10.95
2023-03-27T04:26:04.030Z,12.73
2023-03-27T04:28:36.123Z,11.70
2023-03-27T04:31:06.760Z,12.45
2023-03-27T04:33:39.466Z,9.95
2023-03-27T04:36:10.787Z,9.93
2023-03-27T04:38:39.708Z,8.55
2023-03-27T04:41:09.347Z,13.02
2023-03-27T04:43:40.194Z,12.02
2023-03-27T04:46:09.401Z,12.95
2023-03-27T04:48:39.345Z,11.88
2023-03-27T04:51:09.641Z,10.63
2023-03-27T04:53:38.935Z,11.35
2023-03-27T04:56:09.762Z,10.60
2023-03-27T04:58:41.140Z,12.68
2023-03-27T05:01:10.110Z,12.60
2023-03-27T05:03:39.158Z,13.70
2023-03-27T05:06:10.257Z,12.35
2023-03-27T05:08:39.243Z,15.30
2023-03-27T05:11:08.111Z,18.35
2023-03-27T05:13:37.515Z,25.35
2023-03-27T05:16:10.195Z,21.52
2023-03-27T05:18:41.951Z,12.02
2023-03-27T05:21:12.349Z,16.23
2023-03-27T05:23:41.245Z,22.15
2023-03-27T05:26:09.816Z,22.58
2023-03-27T05:28:39.762Z,20.73
2023-03-27T05:31:10.881Z,19.63
2023-03-27T05:33:40.001Z,19.17
2023-03-27T05:36:10.003Z,17.75
2023-03-27T05:38:40.267Z,12.40
2023-03-27T05:41:10.058Z,23.27
2023-03-27T05:43:38.882Z,10.05
2023-03-27T05:46:07.774Z,11.50
2023-03-27T05:48:36.649Z,12.70
2023-03-27T05:51:05.520Z,10.85
2023-03-27T05:53:36.373Z,14.98
2023-03-27T05:56:07.541Z,7.95
2023-03-27T05:58:36.069Z,6.85
2023-03-27T06:01:04.959Z,8.85
2023-03-27T06:03:35.813Z,8.60
2023-03-27T06:06:09.134Z,6.80
2023-03-27T06:08:38.411Z,10.18
2023-03-27T06:11:11.988Z,5.40
2023-03-27T06:13:40.548Z,8.40
2023-03-27T06:16:10.649Z,9.15
2023-03-27T06:18:39.222Z,6.40
2023-03-27T06:21:08.409Z,5.80
2023-03-27T06:23:36.990Z,6.57
2023-03-27T06:26:06.064Z,4.80
2023-03-27T06:28:36.833Z,6.65
2023-03-27T06:31:06.045Z,5.03
2023-03-27T06:33:35.195Z,7.63
2023-03-27T06:36:05.455Z,5.90
2023-03-27T06:38:34.296Z,5.43
2023-03-27T06:41:02.861Z,4.88
2023-03-27T06:43:32.077Z,4.25
2023-03-27T06:46:04.949Z,4.13
2023-03-27T06:48:34.713Z,4.20
2023-03-27T06:51:03.200Z,6.05
2023-03-27T06:53:35.464Z,6.43
2023-03-27T06:56:07.461Z,3.97
2023-03-27T06:58:36.801Z,4.18
2023-03-27T07:01:07.879Z,4.10
2023-03-27T07:03:36.629Z,4.63
2023-03-27T07:06:06.251Z,4.78
2023-03-27T07:08:34.574Z,5.10
2023-03-27T07:13:35.212Z,5.28
2023-03-27T07:16:04.561Z,6.22
2023-03-27T07:18:36.265Z,4.20
2023-03-27T07:21:06.150Z,3.50
2023-03-27T07:23:34.875Z,4.30
2023-03-27T07:26:04.028Z,2.92
2023-03-27T07:28:32.839Z,5.20
2023-03-27T07:31:02.075Z,3.45
2023-03-27T07:33:30.967Z,4.40
2023-03-27T07:36:02.017Z,3.55
2023-03-27T07:38:31.998Z,5.95
2023-03-27T07:41:05.949Z,3.22
2023-03-27T07:43:35.508Z,3.78
2023-03-27T07:46:06.284Z,4.13
2023-03-27T07:48:36.014Z,3.67
2023-03-27T07:51:13.812Z,4.25
2023-03-27T07:53:43.772Z,5.25
2023-03-27T07:56:14.010Z,4.22
2023-03-27T07:58:42.806Z,3.45
2023-03-27T08:01:11.639Z,5.38
2023-03-27T08:03:44.309Z,3.25
2023-03-27T08:06:14.865Z,10.65
2023-03-27T08:08:43.379Z,6.65
2023-03-27T08:11:23.027Z,6.15
2023-03-27T08:13:52.271Z,7.25
2023-03-27T08:16:21.784Z,5.45
2023-03-27T08:18:50.859Z,4.20
2023-03-27T08:21:22.572Z,3.40
2023-03-27T08:23:51.924Z,4.93
2023-03-27T08:26:20.988Z,3.60
2023-03-27T08:28:54.113Z,4.32
2023-03-27T08:31:22.762Z,3.00
2023-03-27T08:33:51.653Z,2.72
2023-03-27T08:36:23.122Z,2.88
2023-03-27T08:38:55.352Z,4.15
2023-03-27T08:41:30.818Z,3.83
2023-03-27T08:44:04.125Z,3.58
2023-03-27T08:46:39.198Z,4.63
2023-03-27T08:49:12.898Z,2.92
2023-03-27T08:51:48.260Z,5.05
2023-03-27T08:54:21.629Z,2.75
2023-03-27T08:56:52.472Z,5.07
2023-03-27T08:59:24.312Z,4.45
2023-03-27T09:02:00.459Z,5.68
2023-03-27T09:04:38.258Z,5.15
2023-03-27T09:07:12.760Z,5.93
2023-03-27T09:09:52.876Z,6.18
2023-03-27T09:12:39.214Z,8.00
2023-03-27T09:15:13.243Z,4.03
2023-03-27T09:17:48.338Z,5.25
2023-03-27T09:20:20.867Z,3.78
2023-03-27T09:22:54.631Z,3.80
2023-03-27T09:25:28.468Z,3.80
2023-03-27T09:27:58.253Z,3.45
2023-03-27T09:30:29.540Z,3.15
2023-03-27T09:33:01.553Z,4.93
2023-03-27T09:35:30.516Z,3.97
2023-03-27T09:38:04.347Z,3.10
2023-03-27T09:40:38.000Z,2.60
2023-03-27T09:43:17.797Z,4.28
2023-03-27T09:45:48.125Z,6.97
2023-03-27T09:48:24.646Z,4.85
2023-03-27T09:50:53.380Z,3.58
2023-03-27T09:53:24.165Z,3.47
2023-03-27T09:55:56.931Z,3.10
2023-03-27T09:58:40.276Z,4.82
2023-03-27T10:01:16.415Z,4.05
2023-03-27T10:03:52.176Z,7.00
2023-03-27T10:06:27.362Z,7.50
2023-03-27T10:09:01.492Z,6.03
2023-03-27T10:11:34.020Z,12.80
2023-03-27T10:14:11.289Z,9.00
2023-03-27T10:16:42.528Z,4.68
2023-03-27T10:19:23.697Z,5.22
2023-03-27T10:21:52.927Z,4.18
2023-03-27T10:24:32.164Z,3.90
2023-03-27T10:27:01.594Z,4.70
2023-03-27T10:29:32.967Z,2.63
2023-03-27T10:32:04.162Z,4.68
2023-03-27T10:34:40.084Z,5.63
2023-03-27T10:37:23.149Z,4.03
2023-03-27T10:39:55.469Z,4.75
2023-03-27T10:42:27.911Z,4.00
2023-03-27T10:44:57.799Z,5.10
2023-03-27T10:47:29.692Z,5.25
2023-03-27T10:50:10.582Z,5.00
2023-03-27T10:52:50.494Z,4.82
2023-03-27T10:55:30.312Z,6.72
2023-03-27T10:58:03.610Z,5.45
2023-03-27T11:00:38.441Z,5.30
2023-03-27T11:03:15.049Z,4.47
2023-03-27T11:05:46.793Z,5.88
2023-03-27T11:08:20.610Z,5.78
2023-03-27T11:10:52.199Z,5.28
2023-03-27T11:13:24.524Z,4.88
2023-03-27T11:16:02.147Z,5.05
2023-03-27T11:18:36.178Z,5.75
2023-03-27T11:21:12.937Z,6.68
2023-03-27T11:26:16.681Z,6.05
2023-03-27T11:28:53.167Z,8.52
2023-03-27T11:31:38.266Z,6.25
2023-03-27T11:34:12.570Z,10.25
2023-03-27T11:36:47.024Z,9.52
2023-03-27T11:39:22.825Z,6.85
2023-03-27T11:41:55.248Z,7.97
2023-03-27T11:44:25.585Z,7.57
2023-03-27T11:47:08.724Z,7.55
2023-03-27T11:50:02.865Z,7.60
2023-03-27T11:52:41.013Z,8.20
2023-03-27T11:55:17.792Z,7.28
2023-03-27T12:00:36.474Z,2.50
2023-03-27T12:03:45.968Z,4.65
2023-03-27T12:06:28.794Z,2.42
2023-03-27T12:09:30.482Z,2.53
2023-03-27T12:12:07.745Z,2.28
2023-03-27T12:14:52.004Z,2.30
2023-03-27T12:17:34.176Z,1.48
2023-03-27T12:20:53.838Z,2.05
2023-03-27T12:23:52.784Z,1.20
2023-03-27T12:26:39.397Z,1.00
2023-03-27T12:29:26.487Z,1.00
2023-03-27T12:32:12.552Z,1.20
2023-03-27T12:34:53.248Z,1.20
2023-03-27T12:37:26.509Z,1.15
2023-03-27T12:40:00.238Z,1.30
2023-03-27T12:42:43.924Z,1.50
2023-03-27T12:45:18.537Z,3.35
2023-03-27T12:48:06.971Z,1.55
2023-03-27T12:50:42.024Z,2.38
2023-03-27T12:53:21.653Z,2.80
2023-03-27T12:55:50.456Z,1.95
2023-03-27T12:58:33.899Z,1.67
2023-03-27T13:01:03.740Z,1.48
2023-03-27T13:03:53.242Z,2.58
2023-03-27T13:06:33.215Z,2.47
2023-03-27T13:09:16.903Z,2.08
2023-03-27T13:11:58.562Z,2.20
2023-03-27T13:14:47.442Z,3.63
2023-03-27T13:17:32.926Z,3.05
2023-03-27T13:20:17.547Z,1.33
2023-03-27T13:22:59.579Z,1.17
2023-03-27T13:25:45.976Z,0.57
2023-03-27T13:28:28.465Z,0.90
2023-03-27T13:30:59.161Z,0.60
2023-03-27T13:33:39.841Z,1.88
2023-03-27T13:36:14.785Z,1.23
2023-03-27T13:39:14.843Z,0.70
2023-03-27T13:42:14.624Z,1.05
2023-03-27T13:45:00.162Z,0.73
2023-03-27T13:48:02.405Z,1.27
2023-03-27T13:50:58.961Z,8.13
2023-03-27T13:53:52.136Z,6.82
2023-03-27T13:56:39.708Z,6.88
2023-03-27T13:59:40.048Z,12.10
2023-03-27T14:02:40.106Z,7.35
2023-03-27T14:05:25.157Z,5.65
2023-03-27T14:08:05.170Z,3.70
2023-03-27T14:10:57.398Z,3.90
2023-03-27T14:13:46.873Z,3.60
2023-03-27T14:16:42.470Z,5.32
2023-03-27T14:19:49.192Z,5.50
2023-03-27T14:22:23.733Z,2.97
2023-03-27T14:24:57.906Z,4.70
2023-03-27T14:27:30.044Z,7.22
2023-03-27T14:30:07.646Z,6.93
2023-03-27T14:32:40.022Z,5.80
2023-03-27T14:35:29.416Z,4.18
2023-03-27T14:38:09.142Z,4.50
2023-03-27T14:40:43.310Z,2.83
2023-03-27T14:43:13.962Z,4.70
2023-03-27T14:45:43.426Z,1.30
2023-03-27T14:48:23.929Z,2.00
2023-03-27T14:50:56.499Z,1.63
2023-03-27T14:53:29.451Z,2.45
2023-03-27T14:56:02.608Z,1.65
2023-03-27T14:58:32.675Z,0.80
2023-03-27T15:01:03.035Z,1.25
2023-03-27T15:03:35.436Z,1.80
2023-03-27T15:06:06.551Z,2.95
2023-03-27T15:08:37.227Z,1.13
2023-03-27T15:11:12.845Z,1.83
2023-03-27T15:13:48.112Z,0.80
2023-03-27T15:16:22.823Z,0.60
2023-03-27T15:19:00.525Z,1.08
2023-03-27T15:21:39.225Z,1.27
2023-03-27T15:24:11.404Z,0.88
2023-03-27T15:26:41.170Z,0.63
2023-03-27T15:29:18.109Z,0.73
2023-03-27T15:31:53.895Z,0.60
2023-03-27T15:34:34.585Z,0.77
2023-03-27T15:37:06.187Z,3.00
2023-03-27T15:39:37.850Z,5.38
2023-03-27T15:42:12.439Z,3.25
2023-03-27T15:44:44.681Z,1.88
2023-03-27T15:47:26.094Z,3.78
2023-03-27T15:50:21.100Z,5.07
2023-03-27T15:52:51.777Z,3.33
2023-03-27T15:55:40.067Z,4.38
2023-03-27T15:58:17.452Z,1.40
2023-03-27T16:00:50.301Z,1.90
2023-03-27T16:03:22.613Z,3.28
2023-03-27T16:05:52.807Z,3.60
2023-03-27T16:08:31.131Z,4.05
2023-03-27T16:11:12.317Z,2.97
2023-03-27T16:13:53.079Z,1.88
2023-03-27T16:16:27.323Z,2.38
2023-03-27T16:19:00.981Z,1.35
2023-03-27T16:21:33.342Z,2.95
2023-03-27T16:24:02.280Z,1.73
2023-03-27T16:26:32.745Z,4.22
2023-03-27T16:29:02.962Z,3.53
2023-03-27T16:31:33.238Z,6.10
2023-03-27T16:34:10.614Z,13.13
2023-03-27T16:36:40.098Z,6.13
2023-03-27T16:39:09.982Z,5.03
2023-03-27T16:41:38.841Z,4.78
2023-03-27T16:44:08.318Z,4.82
2023-03-27T16:46:39.147Z,7.68
2023-03-27T16:49:08.214Z,3.63
2023-03-27T16:51:36.914Z,3.28
2023-03-27T16:54:06.023Z,3.30
2023-03-27T16:56:35.396Z,2.53
2023-03-27T16:59:04.840Z,1.95
2023-03-27T17:01:33.688Z,1.58
2023-03-27T17:04:04.051Z,2.67
2023-03-27T17:06:33.532Z,2.05
2023-03-27T17:09:02.131Z,2.35
2023-03-27T17:11:30.724Z,1.83
2023-03-27T17:13:59.967Z,3.25
2023-03-27T17:16:28.613Z,5.18
2023-03-27T17:18:57.648Z,2.70
2023-03-27T17:21:28.533Z,4.20
2023-03-27T17:23:58.367Z,4.40
2023-03-27T17:26:28.480Z,5.65
2023-03-27T17:28:58.062Z,4.80
2023-03-27T17:31:30.216Z,3.90
2023-03-27T17:33:59.760Z,2.97
2023-03-27T17:36:41.063Z,3.58
2023-03-27T17:39:12.237Z,3.42
2023-03-27T17:41:41.486Z,3.67
2023-03-27T17:44:12.773Z,3.58
2023-03-27T17:46:41.821Z,4.60
2023-03-27T17:49:11.298Z,2.35
2023-03-27T17:51:41.372Z,3.38
2023-03-27T17:54:10.742Z,4.90
2023-03-27T17:56:41.030Z,2.97
2023-03-27T17:59:11.343Z,3.67
2023-03-27T18:01:40.610Z,9.18
2023-03-27T18:04:09.975Z,4.93
2023-03-27T18:06:38.680Z,4.00
2023-03-27T18:09:09.824Z,3.83
2023-03-27T18:11:38.948Z,9.65
2023-03-27T18:14:08.579Z,6.13
2023-03-27T18:16:37.183Z,6.30
2023-03-27T18:19:06.706Z,6.25
2023-03-27T18:21:35.869Z,6.57
2023-03-27T18:24:04.667Z,4.28
2023-03-27T18:26:35.516Z,5.80
2023-03-27T18:29:05.107Z,4.95
2023-03-27T18:31:34.044Z,3.92
2023-03-27T18:34:03.082Z,4.85
2023-03-27T18:36:31.988Z,5.60
2023-03-27T18:39:00.979Z,6.15
2023-03-27T18:41:29.685Z,7.07
2023-03-27T18:44:00.474Z,6.18
2023-03-27T18:46:29.887Z,6.72
2023-03-27T18:48:59.719Z,4.05
2023-03-27T18:51:32.353Z,5.75
2023-03-27T18:54:01.402Z,5.38
2023-03-27T18:56:30.231Z,4.88
2023-03-27T18:59:00.178Z,5.35
2023-03-27T19:01:28.962Z,6.18
2023-03-27T19:03:57.988Z,3.30
2023-03-27T19:06:26.740Z,5.55
2023-03-27T19:08:55.141Z,8.40
2023-03-27T19:11:23.903Z,5.20
2023-03-27T19:13:52.484Z,5.72
2023-03-27T19:16:22.524Z,6.97
2023-03-27T19:18:51.518Z,3.38
2023-03-27T19:21:20.683Z,5.47
2023-03-27T19:23:49.560Z,5.95
2023-03-27T19:26:19.707Z,2.58
2023-03-27T19:28:49.192Z,3.60
2023-03-27T19:31:18.068Z,5.45
2023-03-27T19:33:48.750Z,4.55
2023-03-27T19:36:17.239Z,5.13
2023-03-27T19:38:46.248Z,5.88
2023-03-27T19:41:15.180Z,4.82
2023-03-27T19:43:43.849Z,6.20
2023-03-27T19:46:16.424Z,3.70
2023-03-27T19:48:45.574Z,5.03
2023-03-27T19:51:16.310Z,5.95
2023-03-27T19:53:44.700Z,5.45
2023-03-27T19:56:13.825Z,6.18
2023-03-27T19:58:43.053Z,5.93
2023-03-27T20:01:11.828Z,6.15
2023-03-27T20:03:40.772Z,3.72
2023-03-27T20:06:13.823Z,5.90
2023-03-27T20:08:44.889Z,7.97
2023-03-27T20:11:14.181Z,7.28
2023-03-27T20:13:55.436Z,7.25
2023-03-27T20:16:26.477Z,6.45
2023-03-27T20:19:04.754Z,4.45
2023-03-27T20:21:35.276Z,5.72
2023-03-27T20:24:06.876Z,7.60
2023-03-27T20:26:39.416Z,7.38
2023-03-27T20:29:08.817Z,5.47
2023-03-27T20:31:38.197Z,6.57
2023-03-27T20:34:10.802Z,8.25
2023-03-27T20:36:43.480Z,6.47
2023-03-27T20:39:14.429Z,9.93
2023-03-27T20:41:42.836Z,5.50
2023-03-27T20:44:22.997Z,5.47
2023-03-27T20:46:53.008Z,4.90
2023-03-27T20:52:00.163Z,7.07
2023-03-27T20:54:30.961Z,6.00
2023-03-27T20:56:59.727Z,5.60
2023-03-27T20:59:28.834Z,5.68
2023-03-27T21:01:57.718Z,9.40
2023-03-27T21:04:28.238Z,7.68
2023-03-27T21:06:57.058Z,5.80
2023-03-27T21:09:28.064Z,7.22
2023-03-27T21:11:57.817Z,5.47
2023-03-27T21:14:26.584Z,4.70
2023-03-27T21:16:56.032Z,4.25
2023-03-27T21:19:25.078Z,6.35
2023-03-27T21:21:54.123Z,5.07
2023-03-27T21:24:22.688Z,4.47
2023-03-27T21:26:51.040Z,6.10
2023-03-27T21:29:21.390Z,5.50
2023-03-27T21:31:50.292Z,6.57
2023-03-27T21:34:18.981Z,5.32
2023-03-27T21:36:47.712Z,6.20
2023-03-27T21:39:16.420Z,6.03
2023-03-27T21:41:45.028Z,6.15
2023-03-27T21:44:13.799Z,5.35
2023-03-27T21:46:44.256Z,4.90
2023-03-27T21:49:12.783Z,6.53
2023-03-27T21:51:41.387Z,6.15
2023-03-27T21:54:10.228Z,6.20
2023-03-27T21:56:38.916Z,4.93
2023-03-27T21:59:07.327Z,7.13
2023-03-27T22:01:36.021Z,5.93
2023-03-27T22:04:06.588Z,5.53
2023-03-27T22:06:35.690Z,6.47
2023-03-27T22:09:04.670Z,5.57
2023-03-27T22:11:33.238Z,6.93
2023-03-27T22:14:02.025Z,6.47
2023-03-27T22:16:30.972Z,12.05
2023-03-27T22:18:59.731Z,6.57
2023-03-27T22:21:31.564Z,6.07
2023-03-27T22:24:00.253Z,4.50
2023-03-27T22:26:31.775Z,5.45
2023-03-27T22:29:00.546Z,5.03
2023-03-27T22:31:29.459Z,5.90
2023-03-27T22:33:58.848Z,4.95
2023-03-27T22:36:27.407Z,4.68
2023-03-27T22:38:57.559Z,4.68
2023-03-27T22:41:26.586Z,4.57
2023-03-27T22:43:56.026Z,5.00
2023-03-27T22:46:25.818Z,6.00
2023-03-27T22:48:58.706Z,4.90
2023-03-27T22:51:29.798Z,5.32
2023-03-27T22:53:59.951Z,5.18
2023-03-27T22:56:28.562Z,6.93
2023-03-27T22:58:57.899Z,7.45
2023-03-27T23:01:26.468Z,5.47
2023-03-27T23:03:55.483Z,8.95
2023-03-27T23:06:25.795Z,6.47
2023-03-27T23:08:55.225Z,7.22
2023-03-27T23:11:26.016Z,6.40
2023-03-27T23:13:54.832Z,7.72
2023-03-27T23:16:23.690Z,4.93
2023-03-27T23:18:52.554Z,5.80
2023-03-27T23:21:21.326Z,7.05
2023-03-27T23:23:50.164Z,5.70
2023-03-27T23:26:21.274Z,7.30
2023-03-27T23:28:51.409Z,6.03
2023-03-27T23:31:21.042Z,6.50
2023-03-27T23:33:51.288Z,5.35
2023-03-27T23:36:21.812Z,6.15
2023-03-27T23:38:51.651Z,8.50
2023-03-27T23:41:21.070Z,6.88
2023-03-27T23:43:51.786Z,8.48
2023-03-27T23:46:20.589Z,6.07
2023-03-27T23:48:49.080Z,6.40
2023-03-27T23:51:18.337Z,8.48
2023-03-27T23:53:47.065Z,10.02
2023-03-27T23:56:15.657Z,9.73
2023-03-27T23:58:44.564Z,8.15
